Time;durP1;ratioP1;P1;durP2;ratioP2;P2;SDS_P1;SDS_P2;PMS_P1;PMS_P2;Temp;Humidity;BMP_temperature;BMP_pressure;BME280_temperature;BME280_humidity;BME280_pressure;Samples;Min_cycle;Max_cycle;Signal;HPM_P1;HPM_P2
2023/02/12 00:00:06;;;;;;;49.95;28.40;;;2.80;94.20;;;;;;5034919;28;20057;-69
2023/02/12 00:02:32;;;;;;;42.28;24.63;;;2.80;94.90;;;;;;5034979;28;20351;-68
2023/02/12 00:04:57;;;;;;;45.72;26.38;;;2.80;94.70;;;;;;5033040;28;20119;-69
2023/02/12 00:07:23;;;;;;;40.53;24.98;;;2.80;95.10;;;;;;5035781;28;20362;-68
2023/02/12 00:09:48;;;;;;;48.20;29.23;;;2.80;94.60;;;;;;5033876;28;20422;-69
2023/02/12 00:12:14;;;;;;;55.00;30.48;;;2.80;94.20;;;;;;5036257;28;20018;-69
2023/02/12 00:14:39;;;;;;;50.80;28.48;;;2.90;93.80;;;;;;5030508;28;20029;-68
2023/02/12 00:17:05;;;;;;;54.30;31.33;;;2.90;93.70;;;;;;5031303;28;20362;-67
2023/02/12 00:19:30;;;;;;;47.08;27.17;;;2.90;94.10;;;;;;5024728;28;20044;-68
2023/02/12 00:21:56;;;;;;;36.90;22.92;;;2.90;93.90;;;;;;5032252;28;20025;-68
2023/02/12 00:24:21;;;;;;;40.88;24.95;;;2.80;95.10;;;;;;5033249;28;20079;-69
2023/02/12 00:26:47;;;;;;;46.90;27.42;;;2.80;94.70;;;;;;5008293;28;20099;-69
2023/02/12 00:29:13;;;;;;;47.55;27.70;;;2.70;94.20;;;;;;5033412;28;20033;-69
2023/02/12 00:31:39;;;;;;;46.78;27.35;;;2.70;94.10;;;;;;5034458;28;20100;-68
2023/02/12 00:34:05;;;;;;;50.45;29.98;;;2.70;93.80;;;;;;5034854;28;20036;-69
2023/02/12 00:36:31;;;;;;;56.67;30.80;;;2.80;93.00;;;;;;5033940;28;20117;-69
2023/02/12 00:38:57;;;;;;;56.47;30.80;;;2.80;92.40;;;;;;5031598;28;20104;-69
2023/02/12 00:41:23;;;;;;;47.30;27.10;;;2.90;92.40;;;;;;5034550;28;20105;-69
2023/02/12 00:43:49;;;;;;;53.42;28.00;;;3.00;94.20;;;;;;5033460;28;20350;-69
2023/02/12 00:46:18;;;;;;;53.63;28.85;;;3.00;94.40;;;;;;5031661;28;20022;-69
2023/02/12 00:48:44;;;;;;;56.67;29.70;;;3.10;93.20;;;;;;5034758;28;20326;-68
2023/02/12 00:51:09;;;;;;;57.70;31.00;;;3.20;93.60;;;;;;5034895;28;20025;-69
2023/02/12 00:53:35;;;;;;;51.70;27.50;;;3.10;94.10;;;;;;5034812;28;20030;-69
2023/02/12 00:56:04;;;;;;;50.92;28.50;;;3.10;94.00;;;;;;5034081;28;20080;-69
2023/02/12 00:58:30;;;;;;;53.22;29.67;;;3.10;94.70;;;;;;5035166;28;20060;-69
2023/02/12 01:00:55;;;;;;;46.35;27.38;;;3.00;94.40;;;;;;5017138;28;20025;-69
2023/02/12 01:03:21;;;;;;;49.45;27.75;;;3.00;93.80;;;;;;5034654;28;20025;-68
2023/02/12 01:05:46;;;;;;;62.72;31.48;;;3.00;93.30;;;;;;5033775;28;20040;-69
2023/02/12 01:08:13;;;;;;;55.17;31.10;;;3.00;94.10;;;;;;5033292;28;20033;-69
2023/02/12 01:10:40;;;;;;;51.42;29.85;;;2.90;94.20;;;;;;5017451;28;20088;-69
2023/02/12 01:13:09;;;;;;;52.00;30.20;;;2.90;94.60;;;;;;5034584;28;20041;-69
2023/02/12 01:15:41;;;;;;;54.30;29.85;;;2.90;94.20;;;;;;5032401;28;20029;-69
2023/02/12 01:18:06;;;;;;;51.28;28.20;;;2.90;94.30;;;;;;5033849;28;20025;-69
2023/02/12 01:20:32;;;;;;;49.70;27.67;;;2.90;94.20;;;;;;5034240;28;20424;-69
2023/02/12 01:22:57;;;;;;;50.47;27.67;;;2.90;94.10;;;;;;5034755;28;20060;-69
2023/02/12 01:25:23;;;;;;;41.20;25.77;;;2.90;94.20;;;;;;5016331;28;20044;-68
2023/02/12 01:27:52;;;;;;;43.53;24.90;;;2.90;94.10;;;;;;5037794;28;20056;-68
2023/02/12 01:30:20;;;;;;;42.08;25.52;;;2.90;93.70;;;;;;5031747;28;20080;-68
2023/02/12 01:32:46;;;;;;;46.58;26.80;;;2.90;93.50;;;;;;5037117;28;20634;-69
2023/02/12 01:35:11;;;;;;;47.65;26.70;;;2.90;93.90;;;;;;5038260;28;20029;-69
2023/02/12 01:37:40;;;;;;;47.33;25.63;;;2.90;93.70;;;;;;5036033;28;20120;-68
2023/02/12 01:40:07;;;;;;;42.13;24.25;;;2.90;94.20;;;;;;5037827;28;20036;-68
2023/02/12 01:42:33;;;;;;;48.58;27.42;;;2.90;93.90;;;;;;5038580;28;20022;-67
2023/02/12 01:45:38;;;;;;;43.47;23.98;;;2.90;94.70;;;;;;5036088;28;20017;-67
2023/02/12 01:48:04;;;;;;;48.05;24.83;;;2.80;94.10;;;;;;5019125;28;20049;-67
2023/02/12 01:50:31;;;;;;;46.13;24.48;;;2.80;93.90;;;;;;5032507;28;20038;-69
2023/02/12 01:52:57;;;;;;;42.92;24.63;;;2.80;93.90;;;;;;5036556;28;20060;-68
2023/02/12 01:55:23;;;;;;;41.33;24.70;;;2.90;94.40;;;;;;5030026;28;20087;-69
2023/02/12 01:57:49;;;;;;;44.58;24.13;;;2.90;94.60;;;;;;5038046;28;20032;-70
2023/02/12 02:00:20;;;;;;;41.25;23.13;;;2.80;94.00;;;;;;5018655;28;20087;-68
2023/02/12 02:02:51;;;;;;;38.45;20.95;;;2.90;93.70;;;;;;5038016;28;20025;-68
2023/02/12 02:05:26;;;;;;;36.75;21.30;;;2.90;94.50;;;;;;5036862;28;20412;-69
2023/02/12 02:07:53;;;;;;;40.25;23.23;;;2.80;94.60;;;;;;5038398;28;20065;-68
2023/02/12 02:10:19;;;;;;;39.63;22.25;;;2.80;94.30;;;;;;5037150;28;20047;-69
2023/02/12 02:15:30;;;;;;;;;;;2.80;93.70;;;;;;5035416;28;20516;-68
2023/02/12 02:18:18;;;;;;;41.50;22.67;;;2.80;93.50;;;;;;5036538;28;20306;-68
2023/02/12 02:21:17;;;;;;;45.80;23.48;;;2.90;93.60;;;;;;5026659;28;20037;-69
2023/02/12 02:24:19;;;;;;;44.08;23.05;;;2.90;93.50;;;;;;5036973;28;20296;-69
2023/02/12 02:27:01;;;;;;;33.92;18.63;;;2.90;92.90;;;;;;5035571;28;20029;-69
2023/02/12 02:29:49;;;;;;;34.35;18.92;;;2.90;93.30;;;;;;5034416;28;20037;-69
2023/02/12 02:32:24;;;;;;;32.13;18.10;;;2.90;93.80;;;;;;4998682;28;20041;-68
2023/02/12 02:35:08;;;;;;;30.58;17.50;;;2.90;94.10;;;;;;5035476;28;20040;-67
2023/02/12 02:37:43;;;;;;;31.65;18.63;;;2.80;94.00;;;;;;5035707;28;20449;-68
2023/02/12 02:40:21;;;;;;;32.75;18.90;;;2.80;94.10;;;;;;5032827;28;20040;-68
2023/02/12 02:43:13;;;;;;;35.00;18.45;;;2.80;93.70;;;;;;5034229;28;20326;-68
2023/02/12 02:45:44;;;;;;;36.15;21.10;;;2.80;93.40;;;;;;5028907;28;20025;-70
2023/02/12 02:48:23;;;;;;;31.05;17.48;;;2.80;93.70;;;;;;5036516;28;20451;-69
2023/02/12 02:50:57;;;;;;;35.80;20.08;;;2.70;93.00;;;;;;5033741;28;20337;-69
2023/02/12 02:53:31;;;;;;;32.92;19.20;;;2.70;93.10;;;;;;5018365;28;20030;-68
2023/02/12 02:56:00;;;;;;;32.75;18.67;;;2.80;93.70;;;;;;5031170;28;20045;-68
2023/02/12 02:58:34;;;;;;;28.33;17.33;;;2.70;93.30;;;;;;5015890;28;20549;-68
2023/02/12 03:01:03;;;;;;;;;;;2.70;92.70;;;;;;5031317;28;20024;-68
2023/02/12 03:03:43;;;;;;;34.08;17.33;;;2.70;93.10;;;;;;5037055;28;19909;-68
2023/02/12 03:06:24;;;;;;;32.03;17.80;;;2.70;92.80;;;;;;5036083;28;20310;-69
2023/02/12 03:08:55;;;;;;;33.83;18.50;;;2.70;92.70;;;;;;5036911;28;20422;-68
2023/02/12 03:11:29;;;;;;;30.30;17.25;;;2.70;92.40;;;;;;5023652;28;20065;-68
2023/02/12 03:13:55;;;;;;;29.67;16.35;;;2.70;92.20;;;;;;5036073;28;20025;-67
2023/02/12 03:16:52;;;;;;;30.52;17.02;;;2.80;91.90;;;;;;5035339;28;20032;-68
2023/02/12 03:19:51;;;;;;;38.17;20.45;;;2.80;92.60;;;;;;5033338;28;20390;-68
2023/02/12 03:22:30;;;;;;;34.85;20.05;;;2.80;92.50;;;;;;5021538;28;20441;-68
2023/02/12 03:25:13;;;;;;;30.35;17.90;;;2.80;92.40;;;;;;5031167;28;20038;-67
2023/02/12 03:27:45;;;;;;;28.38;15.80;;;2.80;92.30;;;;;;5027153;28;20014;-68
2023/02/12 03:30:12;;;;;;;34.30;19.00;;;2.80;92.70;;;;;;5034118;28;20112;-68
2023/02/12 03:32:53;;;;;;;33.72;19.42;;;2.80;92.60;;;;;;5035729;28;20048;-70
2023/02/12 03:35:24;;;;;;;30.38;18.33;;;2.80;91.90;;;;;;5034758;28;20117;-67
2023/02/12 03:38:00;;;;;;;37.20;20.33;;;2.80;91.90;;;;;;5034597;28;20030;-67
2023/02/12 03:40:49;;;;;;;33.17;19.63;;;2.90;92.30;;;;;;5035310;28;20108;-68
2023/02/12 03:43:26;;;;;;;36.22;20.27;;;2.90;92.00;;;;;;5034668;28;20438;-68
2023/02/12 03:46:01;;;;;;;38.80;21.17;;;2.90;92.10;;;;;;5026165;28;20029;-68
2023/02/12 03:48:46;;;;;;;35.38;21.73;;;2.90;92.00;;;;;;5033804;28;20430;-68
2023/02/12 03:51:29;;;;;;;35.65;21.13;;;3.00;92.30;;;;;;5036253;28;20053;-68
2023/02/12 03:53:56;;;;;;;34.97;20.20;;;3.00;92.30;;;;;;5027582;28;20029;-68
2023/02/12 03:56:27;;;;;;;41.85;23.17;;;3.00;92.30;;;;;;5030926;28;20053;-68
2023/02/12 03:58:53;;;;;;;35.13;20.42;;;3.00;92.40;;;;;;5034811;28;20445;-68
2023/02/12 04:01:18;;;;;;;36.67;19.88;;;3.00;91.90;;;;;;5034388;28;20108;-67
2023/02/12 04:03:44;;;;;;;36.95;20.42;;;3.00;91.50;;;;;;5028760;28;20109;-68
2023/02/12 04:06:25;;;;;;;32.60;18.38;;;3.00;91.80;;;;;;5017715;28;20030;-68
2023/02/12 04:08:53;;;;;;;33.97;18.70;;;3.00;91.10;;;;;;5029689;28;20354;-68
2023/02/12 04:11:29;;;;;;;29.10;16.77;;;3.00;91.40;;;;;;5018784;28;20030;-68
2023/02/12 04:14:40;;;;;;;35.88;19.52;;;3.10;90.90;;;;;;5035063;28;20105;-68
2023/02/12 04:17:13;;;;;;;28.95;17.27;;;3.10;91.20;;;;;;5013815;28;20041;-68
2023/02/12 04:20:03;;;;;;;29.95;16.67;;;3.10;91.50;;;;;;5036376;28;20032;-69
2023/02/12 04:23:10;;;;;;;31.45;17.45;;;3.30;91.40;;;;;;5032964;28;20370;-69
2023/02/12 04:25:55;;;;;;;32.45;18.05;;;3.30;92.50;;;;;;5031900;28;20068;-68
2023/02/12 04:29:14;;;;;;;26.73;15.73;;;3.30;92.20;;;;;;5022182;28;20418;-69
2023/02/12 04:31:52;;;;;;;37.97;21.13;;;3.20;92.10;;;;;;4955435;28;20067;-68
2023/02/12 04:34:28;;;;;;;37.22;20.02;;;3.10;92.60;;;;;;5031037;28;20034;-68
2023/02/12 04:37:03;;;;;;;28.27;16.02;;;3.10;92.30;;;;;;5033627;28;20112;-68
2023/02/12 04:39:32;;;;;;;27.08;15.82;;;3.10;92.00;;;;;;5034817;28;20029;-68
2023/02/12 04:42:00;;;;;;;24.55;15.27;;;3.10;92.50;;;;;;5034523;28;20334;-68
2023/02/12 04:44:30;;;;;;;27.65;15.80;;;3.10;92.60;;;;;;5034544;28;20029;-68
2023/02/12 04:46:55;;;;;;;35.22;20.33;;;3.20;92.50;;;;;;5030275;28;20052;-68
2023/02/12 04:49:22;;;;;;;41.13;23.48;;;3.10;92.00;;;;;;5032951;28;20029;-69
2023/02/12 04:51:49;;;;;;;27.42;14.88;;;3.20;91.80;;;;;;5035179;28;20041;-69
2023/02/12 04:54:16;;;;;;;23.55;14.27;;;3.20;91.70;;;;;;5035117;28;20033;-68
2023/02/12 04:56:45;;;;;;;22.02;12.68;;;3.20;92.00;;;;;;5033613;28;20120;-68
2023/02/12 04:59:10;;;;;;;21.65;12.85;;;3.30;91.70;;;;;;5034340;28;20021;-69
2023/02/12 05:01:40;;;;;;;24.95;15.45;;;3.30;92.20;;;;;;5016587;28;20037;-69
2023/02/12 05:04:08;;;;;;;28.90;16.95;;;3.30;92.40;;;;;;5034567;28;20049;-69
2023/02/12 05:06:37;;;;;;;19.80;12.63;;;3.30;92.80;;;;;;5032922;28;20346;-69
2023/02/12 05:09:04;;;;;;;22.30;13.05;;;3.30;92.50;;;;;;5035617;28;20098;-69
2023/02/12 05:11:30;;;;;;;20.60;12.65;;;3.30;92.90;;;;;;5034822;28;20030;-69
2023/02/12 05:13:57;;;;;;;19.15;10.98;;;3.30;93.20;;;;;;5033933;28;20033;-69
2023/02/12 05:16:22;;;;;;;19.33;12.05;;;3.30;93.30;;;;;;5010413;28;20030;-69
2023/02/12 05:18:48;;;;;;;17.45;10.18;;;3.30;93.10;;;;;;5018107;28;20048;-69
2023/02/12 05:21:14;;;;;;;21.15;11.98;;;3.40;93.30;;;;;;5034882;28;20033;-69
2023/02/12 05:23:41;;;;;;;17.33;9.93;;;3.40;93.90;;;;;;5035457;28;20025;-67
2023/02/12 05:26:11;;;;;;;16.17;9.70;;;3.40;93.40;;;;;;5033224;28;20366;-69
2023/02/12 05:28:37;;;;;;;14.25;8.88;;;3.40;93.20;;;;;;5033985;28;20318;-68
2023/02/12 05:31:07;;;;;;;14.75;8.55;;;3.40;93.60;;;;;;5033650;28;20030;-69
2023/02/12 05:33:33;;;;;;;13.90;7.97;;;3.40;92.70;;;;;;5016710;28;20485;-69
2023/02/12 05:36:10;;;;;;;15.20;8.82;;;3.40;93.10;;;;;;5032630;28;20029;-68
2023/02/12 05:38:36;;;;;;;15.18;8.93;;;3.50;92.90;;;;;;5016870;28;20022;-68
2023/02/12 05:41:04;;;;;;;15.45;8.35;;;3.50;93.00;;;;;;5034355;28;20067;-68
2023/02/12 05:43:30;;;;;;;15.63;8.57;;;3.60;93.30;;;;;;5016937;28;20492;-66
2023/02/12 05:46:04;;;;;;;15.00;8.43;;;3.60;93.50;;;;;;5031433;28;20026;-69
2023/02/12 05:48:30;;;;;;;16.05;8.98;;;3.60;93.40;;;;;;5033191;28;20407;-68
2023/02/12 05:51:18;;;;;;;13.13;7.97;;;3.60;94.30;;;;;;5031867;28;20370;-67
2023/02/12 05:53:44;;;;;;;12.50;7.20;;;3.50;94.10;;;;;;5033444;28;20426;-68
2023/02/12 05:56:22;;;;;;;15.50;8.10;;;3.50;93.70;;;;;;5032592;28;20060;-67
2023/02/12 05:58:55;;;;;;;13.13;7.93;;;3.60;94.10;;;;;;5034140;28;20310;-69
2023/02/12 06:01:27;;;;;;;12.57;7.05;;;3.60;94.30;;;;;;5033185;28;20019;-68
2023/02/12 06:03:53;;;;;;;11.25;6.78;;;3.60;94.20;;;;;;5033062;28;20025;-68
2023/02/12 06:06:19;;;;;;;12.55;7.00;;;3.60;94.10;;;;;;5034232;28;20076;-67
2023/02/12 06:08:48;;;;;;;11.27;6.88;;;3.60;94.80;;;;;;5034308;28;20033;-68
2023/02/12 06:11:15;;;;;;;11.55;6.20;;;3.50;94.20;;;;;;5035358;28;20033;-68
2023/02/12 06:13:41;;;;;;;12.18;6.30;;;3.40;94.40;;;;;;5037316;28;20033;-68
2023/02/12 06:16:14;;;;;;;11.55;6.80;;;3.40;94.10;;;;;;5036624;28;20052;-69
2023/02/12 06:18:40;;;;;;;11.30;6.68;;;3.50;93.80;;;;;;5022032;28;20037;-67
2023/02/12 06:21:05;;;;;;;12.63;6.93;;;3.50;93.80;;;;;;5037675;28;20034;-69
2023/02/12 06:23:31;;;;;;;10.23;5.90;;;3.60;93.60;;;;;;5019090;28;20219;-69
2023/02/12 06:25:57;;;;;;;11.52;6.15;;;3.60;93.30;;;;;;5036783;28;20429;-67
2023/02/12 06:28:22;;;;;;;11.85;6.35;;;3.60;94.10;;;;;;5036745;28;20059;-68
2023/02/12 06:30:48;;;;;;;12.77;7.13;;;3.60;94.70;;;;;;5033527;28;20065;-68
2023/02/12 06:33:15;;;;;;;9.88;5.78;;;3.50;94.70;;;;;;5037778;28;20438;-68
2023/02/12 06:35:40;;;;;;;11.65;6.55;;;3.50;94.40;;;;;;5030973;28;20112;-67
2023/02/12 06:38:06;;;;;;;12.15;5.70;;;3.40;94.10;;;;;;5036021;28;20483;-68
2023/02/12 06:40:32;;;;;;;12.43;6.05;;;3.50;93.70;;;;;;5035337;28;20025;-68
2023/02/12 06:42:57;;;;;;;11.75;6.43;;;3.60;93.20;;;;;;5035290;28;20064;-68
2023/02/12 06:45:23;;;;;;;11.90;6.60;;;3.60;92.60;;;;;;5036812;28;20025;-67
2023/02/12 06:47:48;;;;;;;11.73;6.20;;;3.60;92.60;;;;;;5037741;28;20373;-68
2023/02/12 06:50:15;;;;;;;12.50;7.00;;;3.70;92.70;;;;;;5035116;28;20617;-68
2023/02/12 06:52:40;;;;;;;11.00;6.00;;;3.70;93.40;;;;;;5019133;28;20021;-67
2023/02/12 06:55:06;;;;;;;11.25;6.10;;;3.60;93.30;;;;;;5037637;28;20038;-68
2023/02/12 06:57:31;;;;;;;10.23;6.22;;;3.60;93.80;;;;;;5037006;28;20032;-67
2023/02/12 06:59:57;;;;;;;10.75;6.05;;;3.60;93.30;;;;;;5036652;28;20025;-68
2023/02/12 07:02:23;;;;;;;11.75;6.55;;;3.60;93.50;;;;;;5018159;28;20033;-68
2023/02/12 07:04:48;;;;;;;12.27;6.97;;;3.60;93.30;;;;;;5037592;28;20029;-68
2023/02/12 07:07:17;;;;;;;11.68;6.57;;;3.70;93.20;;;;;;5036068;28;20026;-69
2023/02/12 07:09:42;;;;;;;11.30;6.07;;;3.70;93.90;;;;;;5037669;28;20362;-68
2023/02/12 07:12:11;;;;;;;11.73;6.60;;;3.70;93.40;;;;;;5036453;28;20040;-69
2023/02/12 07:14:36;;;;;;;12.80;6.78;;;3.80;93.30;;;;;;5015657;28;20419;-69
2023/02/12 07:17:04;;;;;;;11.20;6.63;;;3.80;93.90;;;;;;5019464;28;20034;-68
2023/02/12 07:19:30;;;;;;;13.45;6.60;;;3.90;94.10;;;;;;5037330;28;20027;-68
2023/02/12 07:21:55;;;;;;;10.88;5.80;;;4.00;94.20;;;;;;5036171;28;20108;-69
2023/02/12 07:24:24;;;;;;;10.27;5.97;;;4.10;95.40;;;;;;5036417;28;20026;-69
2023/02/12 07:26:50;;;;;;;9.68;5.97;;;4.20;96.10;;;;;;5037295;28;20048;-68
2023/02/12 07:29:16;;;;;;;13.02;5.30;;;4.30;96.60;;;;;;5030913;28;20144;-67
2023/02/12 07:31:41;;;;;;;9.25;5.47;;;4.30;96.90;;;;;;5037198;28;20087;-68
2023/02/12 07:34:08;;;;;;;11.65;6.05;;;4.30;96.80;;;;;;5035098;28;20084;-68
2023/02/12 07:36:34;;;;;;;12.90;7.28;;;4.30;97.30;;;;;;5037389;28;20486;-67
2023/02/12 07:39:00;;;;;;;18.33;9.27;;;4.30;97.10;;;;;;5017911;28;20120;-67
2023/02/12 07:41:30;;;;;;;25.25;12.68;;;4.30;97.20;;;;;;5034830;28;20022;-69
2023/02/12 07:43:58;;;;;;;15.32;8.60;;;4.40;97.30;;;;;;5034223;28;20113;-69
2023/02/12 07:46:29;;;;;;;15.73;9.68;;;4.40;97.50;;;;;;5033270;28;20079;-69
2023/02/12 07:49:00;;;;;;;17.60;10.30;;;4.40;97.30;;;;;;5013719;28;20037;-69
2023/02/12 07:51:27;;;;;;;12.75;8.38;;;4.50;97.80;;;;;;5018498;28;20389;-68
2023/02/12 07:53:53;;;;;;;11.90;7.13;;;4.50;97.90;;;;;;5033840;28;20056;-69
2023/02/12 07:56:24;;;;;;;12.63;6.78;;;4.60;98.00;;;;;;5035933;28;20110;-68
2023/02/12 07:58:52;;;;;;;16.23;8.27;;;4.60;98.00;;;;;;5035032;28;20026;-68
2023/02/12 08:01:33;;;;;;;15.45;8.82;;;4.60;98.00;;;;;;5008017;28;20030;-68
2023/02/12 08:04:07;;;;;;;15.18;9.50;;;4.50;98.00;;;;;;5033797;28;20022;-68
2023/02/12 08:06:37;;;;;;;15.80;9.20;;;4.60;98.00;;;;;;5036471;28;20283;-68
2023/02/12 08:09:05;;;;;;;15.68;8.90;;;4.50;98.00;;;;;;5034842;28;20034;-68
2023/02/12 08:11:32;;;;;;;16.40;8.43;;;4.60;97.80;;;;;;5035575;28;20029;-68
2023/02/12 08:14:00;;;;;;;14.60;8.35;;;4.60;97.50;;;;;;5033825;28;20029;-68
2023/02/12 08:16:27;;;;;;;13.25;7.93;;;4.70;98.00;;;;;;5034309;28;20029;-68
2023/02/12 08:18:54;;;;;;;14.73;8.63;;;4.70;98.00;;;;;;5033710;28;20029;-69
2023/02/12 08:21:24;;;;;;;13.90;7.60;;;4.70;98.00;;;;;;5035716;28;20018;-68
2023/02/12 08:23:50;;;;;;;13.10;8.02;;;4.70;97.70;;;;;;5033433;28;20041;-68
2023/02/12 08:26:19;;;;;;;16.20;8.77;;;4.70;97.80;;;;;;5034219;28;20036;-68
2023/02/12 08:28:50;;;;;;;14.85;8.25;;;4.90;98.00;;;;;;5034230;28;22006;-68
2023/02/12 08:31:19;;;;;;;15.75;8.95;;;4.90;98.00;;;;;;5034383;28;20053;-68
2023/02/12 08:33:46;;;;;;;14.98;8.88;;;5.00;98.00;;;;;;5016624;28;20030;-68
2023/02/12 08:36:14;;;;;;;13.10;7.65;;;5.00;98.00;;;;;;5034706;28;20033;-68
2023/02/12 08:38:41;;;;;;;14.18;8.27;;;5.00;98.00;;;;;;5031700;28;20041;-68
2023/02/12 08:41:16;;;;;;;15.02;8.88;;;5.10;98.00;;;;;;5033697;28;20032;-69
2023/02/12 08:43:42;;;;;;;16.38;10.00;;;5.20;98.00;;;;;;5030722;28;20414;-68
2023/02/12 08:46:11;;;;;;;15.68;9.15;;;5.20;98.00;;;;;;5031294;28;20040;-68
2023/02/12 08:48:37;;;;;;;18.20;11.00;;;5.20;98.00;;;;;;5032939;28;20029;-68
2023/02/12 08:51:05;;;;;;;17.13;10.68;;;5.10;98.00;;;;;;5032902;28;20033;-68
2023/02/12 08:53:31;;;;;;;17.65;11.32;;;5.20;98.00;;;;;;5029627;28;20163;-67
2023/02/12 08:55:57;;;;;;;17.13;11.60;;;5.30;98.00;;;;;;5030409;28;20402;-67
2023/02/12 08:58:22;;;;;;;18.42;12.07;;;5.20;98.00;;;;;;5029770;28;20458;-68
2023/02/12 09:00:48;;;;;;;21.38;14.02;;;5.30;98.00;;;;;;5035214;28;20045;-68
2023/02/12 09:03:13;;;;;;;20.77;13.73;;;5.30;98.00;;;;;;5033404;28;20033;-68
2023/02/12 09:05:39;;;;;;;19.23;12.85;;;5.40;98.00;;;;;;5029343;28;20025;-67
2023/02/12 09:08:05;;;;;;;18.80;13.63;;;5.60;98.00;;;;;;5028488;28;20026;-68
2023/02/12 09:10:31;;;;;;;18.15;11.40;;;5.70;98.00;;;;;;5026336;28;20104;-68
2023/02/12 09:12:56;;;;;;;19.42;11.63;;;5.80;98.00;;;;;;5038146;28;20026;-68
2023/02/12 09:15:22;;;;;;;17.00;10.98;;;5.80;98.00;;;;;;5014212;28;20156;-68
2023/02/12 09:17:47;;;;;;;14.20;9.20;;;5.80;98.00;;;;;;5032873;28;20474;-68
2023/02/12 09:20:13;;;;;;;15.88;9.70;;;5.70;98.00;;;;;;5030813;28;20060;-67
2023/02/12 09:22:38;;;;;;;13.85;8.48;;;5.60;98.00;;;;;;5037185;28;20029;-68
2023/02/12 09:25:06;;;;;;;14.73;9.63;;;5.40;98.00;;;;;;5035547;28;20029;-67
2023/02/12 09:27:35;;;;;;;15.60;9.65;;;5.50;98.00;;;;;;5031619;28;20025;-67
2023/02/12 09:30:01;;;;;;;15.85;9.85;;;5.60;98.00;;;;;;5032533;28;20044;-68
2023/02/12 09:32:26;;;;;;;15.27;9.40;;;5.80;98.00;;;;;;5030247;28;20105;-68
2023/02/12 09:34:52;;;;;;;17.70;10.30;;;5.90;98.00;;;;;;5029178;28;20037;-68
2023/02/12 09:37:18;;;;;;;20.75;12.55;;;5.90;98.00;;;;;;5011670;28;20022;-68
2023/02/12 09:39:43;;;;;;;15.75;9.73;;;5.90;98.00;;;;;;5015309;28;20037;-68
2023/02/12 09:42:25;;;;;;;16.35;9.20;;;6.00;98.00;;;;;;5032315;28;20022;-68
2023/02/12 09:44:54;;;;;;;14.90;9.65;;;6.10;98.00;;;;;;5031163;28;20108;-68
2023/02/12 09:47:35;;;;;;;14.70;8.77;;;6.20;98.00;;;;;;5034719;28;20021;-67
2023/02/12 09:50:12;;;;;;;17.02;9.85;;;6.20;98.00;;;;;;5037165;28;20073;-68
2023/02/12 09:52:38;;;;;;;14.55;9.13;;;6.20;98.00;;;;;;5032905;28;20021;-68
2023/02/12 09:55:04;;;;;;;32.17;23.20;;;6.30;98.00;;;;;;5035013;28;20034;-67
2023/02/12 09:57:36;;;;;;;36.72;23.23;;;6.50;98.00;;;;;;5036901;28;20030;-68
2023/02/12 10:00:13;;;;;;;15.95;9.13;;;6.70;98.00;;;;;;5033656;28;20032;-68
2023/02/12 10:02:40;;;;;;;16.13;10.25;;;7.10;98.00;;;;;;5033353;28;20026;-68
2023/02/12 10:05:18;;;;;;;15.63;9.02;;;7.20;98.00;;;;;;5020190;28;20056;-68
2023/02/12 10:08:14;;;;;;;14.52;8.43;;;7.00;98.00;;;;;;5016019;28;20450;-68
2023/02/12 10:10:54;;;;;;;14.23;8.15;;;7.00;98.00;;;;;;5029533;28;20040;-68
2023/02/12 10:13:34;;;;;;;15.32;9.18;;;7.00;98.00;;;;;;5030022;28;20032;-68
2023/02/12 10:16:03;;;;;;;17.00;10.38;;;7.00;98.00;;;;;;5028182;28;20021;-67
2023/02/12 10:18:52;;;;;;;16.20;9.43;;;6.90;98.00;;;;;;5029812;28;20029;-68
2023/02/12 10:21:37;;;;;;;17.08;9.68;;;6.90;98.00;;;;;;5035729;28;20076;-67
2023/02/12 10:24:37;;;;;;;16.63;9.65;;;7.00;98.00;;;;;;5039192;28;20074;-67
2023/02/12 10:27:11;;;;;;;18.35;8.88;;;7.00;98.00;;;;;;5034632;28;20068;-67
2023/02/12 10:29:41;;;;;;;16.67;8.68;;;7.00;98.00;;;;;;5034257;28;20056;-67
2023/02/12 10:32:28;;;;;;;14.93;9.00;;;7.00;98.00;;;;;;5034248;28;20084;-67
2023/02/12 10:34:56;;;;;;;15.68;8.48;;;7.00;98.00;;;;;;5030621;28;20036;-66
2023/02/12 10:37:32;;;;;;;13.25;8.00;;;7.10;98.00;;;;;;5028135;28;20045;-66
2023/02/12 10:40:03;;;;;;;14.88;8.77;;;7.30;97.80;;;;;;5034334;28;20509;-65
2023/02/12 10:42:29;;;;;;;15.20;9.30;;;7.30;97.20;;;;;;5034227;28;20364;-68
2023/02/12 10:44:54;;;;;;;17.27;9.88;;;7.40;97.50;;;;;;5015629;28;20032;-67
2023/02/12 10:47:21;;;;;;;15.70;9.52;;;7.60;97.60;;;;;;5027445;28;20021;-67
2023/02/12 10:49:56;;;;;;;17.25;9.30;;;7.70;97.00;;;;;;5012243;28;20034;-67
2023/02/12 10:52:28;;;;;;;16.25;9.10;;;7.80;96.80;;;;;;5027105;28;20025;-67
2023/02/12 10:54:53;;;;;;;15.45;8.52;;;8.00;96.50;;;;;;5037207;28;20149;-67
2023/02/12 10:57:32;;;;;;;16.48;9.55;;;8.20;96.00;;;;;;5032413;28;20113;-66
2023/02/12 11:00:22;;;;;;;15.75;9.13;;;8.20;95.70;;;;;;5034059;28;20029;-69
2023/02/12 11:03:12;;;;;;;16.42;9.15;;;8.30;94.80;;;;;;5014088;28;20062;-67
2023/02/12 11:05:40;;;;;;;14.38;8.57;;;8.60;94.20;;;;;;5036119;28;20029;-67
2023/02/12 11:08:07;;;;;;;14.00;7.88;;;8.30;94.20;;;;;;5035109;28;20449;-66
2023/02/12 11:10:40;;;;;;;14.32;8.35;;;8.30;94.70;;;;;;5035218;28;20092;-68
2023/02/12 11:13:21;;;;;;;15.40;8.85;;;8.30;94.80;;;;;;5035061;28;20080;-67
2023/02/12 11:15:48;;;;;;;13.05;8.10;;;8.20;94.90;;;;;;5025641;28;20033;-66
2023/02/12 11:18:25;;;;;;;13.07;7.78;;;8.20;94.80;;;;;;5033043;28;20028;-67
2023/02/12 11:21:07;;;;;;;40.22;20.25;;;8.40;94.60;;;;;;5029929;28;20364;-67
2023/02/12 11:23:44;;;;;;;301.67;124.10;;;8.40;94.60;;;;;;5018581;28;20350;-67
2023/02/12 11:26:26;;;;;;;23.77;15.55;;;8.60;94.30;;;;;;5034380;28;20434;-67
2023/02/12 11:29:16;;;;;;;14.65;9.43;;;8.60;94.20;;;;;;5033684;28;20457;-66
2023/02/12 11:31:58;;;;;;;12.23;7.53;;;8.70;93.70;;;;;;5017262;28;20335;-68
2023/02/12 11:34:23;;;;;;;11.30;6.75;;;9.00;93.70;;;;;;5031733;28;20547;-66
2023/02/12 11:36:52;;;;;;;10.77;6.70;;;9.20;93.00;;;;;;5032623;28;20021;-66
2023/02/12 11:39:38;;;;;;;11.38;6.85;;;9.40;91.80;;;;;;5034653;28;20083;-66
2023/02/12 11:42:16;;;;;;;11.30;6.82;;;9.70;91.00;;;;;;5039125;28;20344;-66
2023/02/12 11:45:03;;;;;;;9.52;5.63;;;9.80;90.70;;;;;;5032143;28;20053;-66
2023/02/12 11:47:34;;;;;;;11.07;6.60;;;10.20;90.50;;;;;;5034442;28;20381;-66
2023/02/12 11:50:29;;;;;;;10.88;6.80;;;10.50;88.90;;;;;;5029396;28;20174;-67
2023/02/12 11:53:06;;;;;;;11.02;7.03;;;10.50;88.80;;;;;;5013558;28;20313;-66
2023/02/12 11:55:37;;;;;;;10.45;6.50;;;10.60;88.20;;;;;;5031993;28;20048;-68
2023/02/12 11:58:15;;;;;;;10.18;6.35;;;10.60;88.70;;;;;;5033551;28;20048;-67
2023/02/12 12:00:45;;;;;;;10.20;6.68;;;11.30;87.90;;;;;;5032670;28;20354;-67
2023/02/12 12:03:22;;;;;;;10.20;6.10;;;11.60;85.40;;;;;;5035873;28;20029;-67
2023/02/12 12:05:54;;;;;;;9.82;5.95;;;11.20;85.10;;;;;;5016592;28;20060;-67
2023/02/12 12:08:28;;;;;;;11.23;6.28;;;10.70;87.60;;;;;;5033529;28;20184;-67
2023/02/12 12:11:03;;;;;;;8.95;5.53;;;10.80;87.10;;;;;;5032018;28;20036;-67
2023/02/12 12:13:40;;;;;;;8.80;5.75;;;10.80;87.50;;;;;;5033813;28;20470;-67
2023/02/12 12:22:19;;;;;;;9.45;5.80;;;10.80;87.70;;;;;;5031277;28;20083;-67
2023/02/12 12:25:11;;;;;;;9.48;5.63;;;11.20;86.80;;;;;;5029382;28;20028;-67
2023/02/12 12:28:02;;;;;;;8.80;5.65;;;11.50;86.80;;;;;;5022852;28;20041;-67
2023/02/12 12:30:41;;;;;;;10.45;6.85;;;11.70;84.50;;;;;;5020405;28;20077;-67
2023/02/12 12:33:16;;;;;;;9.75;6.22;;;11.40;85.30;;;;;;5030912;28;20032;-67
2023/02/12 12:35:58;;;;;;;9.13;5.82;;;10.90;86.50;;;;;;5030832;28;20038;-68
2023/02/12 12:39:02;;;;;;;7.57;4.63;;;10.70;87.10;;;;;;5023012;28;20064;-68
2023/02/12 12:42:05;;;;;;;9.63;5.18;;;10.20;87.70;;;;;;5026292;28;20442;-67
2023/02/12 12:44:31;;;;;;;8.60;5.25;;;9.80;89.70;;;;;;5031427;28;20083;-67
2023/02/12 12:47:24;;;;;;;9.02;5.18;;;9.60;90.50;;;;;;5032132;28;20108;-67
2023/02/12 12:50:20;;;;;;;14.57;9.20;;;9.90;90.40;;;;;;5029686;28;20021;-67
2023/02/12 12:53:26;;;;;;;11.02;5.35;;;10.00;89.90;;;;;;5010917;28;20033;-67
2023/02/12 12:56:09;;;;;;;8.10;4.80;;;10.20;90.00;;;;;;5027186;28;20045;-67
2023/02/12 12:58:45;;;;;;;8.38;4.65;;;10.70;88.80;;;;;;5026215;28;20037;-67
2023/02/12 13:01:47;;;;;;;9.05;5.38;;;11.10;87.60;;;;;;5012796;28;20029;-67
2023/02/12 13:04:25;;;;;;;11.75;5.80;;;11.10;86.90;;;;;;5035279;28;20038;-67
2023/02/12 13:07:26;;;;;;;8.48;4.63;;;11.20;87.40;;;;;;5026955;28;20021;-67
2023/02/12 13:10:19;;;;;;;9.45;5.05;;;11.40;86.20;;;;;;5028114;28;20027;-67
2023/02/12 13:13:17;;;;;;;9.40;5.45;;;11.30;86.50;;;;;;5027683;28;20041;-66
2023/02/12 13:15:53;;;;;;;8.07;5.38;;;11.30;87.40;;;;;;5022147;28;20403;-66
2023/02/12 13:18:28;;;;;;;9.85;6.05;;;11.30;86.30;;;;;;5030691;28;20029;-66